Portada
METAR-TAF:

METAR-TAF

Aeropuertos :

Aeropuerto de Lüderitz

Lüderitz, Namibia

latitud: 26-41S, longitud: 015-15E, altitud: 130 m

Observación

El informe se hizo hace 55 minutos, a las 03:00 UTC
Temperatura 15°C
Humedad 94%
Presión 1011 hPa

METAR: FYLZ 020300Z AUTO /////KT //// // ////// 15/14 Q1011

Hora: 05:55 (03:55 UTC)

Pronóstico

El informe se hizo hace 1 hora y 55 minutos, a las 02:00 UTC
Pronóstico válido del 02 a las 03 UTC al 02 a las 12 UTC
Viento 7 kt del sur-sureste
Visibilidad 10 km o más
Cielo cubierto a una altura de 1000 ft

TAF: FYLZ 020200Z 0203/0212 15007KT 9999 OVC010

Observaciones y pronósticos meteorológicos de más de 4000 aeropuertos (mensajes METAR y TAF).

Los puntos amarillos y rojos representan las estaciones disponibles.

Ponga el ratón en el punto deseado para ver el nombre de la estación.

Haga clic para ver las observaciones y los pronósticos meteorológicos.

Para cambiar el mapa : haga clic en los botones verdes con una cruz de color negro para hacer un zoom, en el botón verde con un guión para alejar o en las flechas verdes para mapas adyacentes.


METAR-TAF: